KIYA

Abbeville Chris Crusta Memorial Airport

Abbeville, Louisiana, USA
METAR KIYA 221915Z AUTO 01004KT 10SM BKN060 21/15 A3012 RMK AO2 T02140149
Observed Flight Rules
Oct-22 @ 19:15 UTC (16 minutes ago) Visual Flight Rules
Wind Visibility Clouds
10° at 4 knots 10 miles
  • Broken at 6,000' AGL
Temperatures Readings
Current 21°C / 70°F
Dewpoint 15°C / 59°F
Humidity 69%
Altimeter 30.12" Hg
Pressure 1020 hPa
Elevation 5
METAR KIYA 221915Z AUTO 01004KT 10SM BKN060 21/15 A3012 RMK AO2 T02140149
Observed Flight Rules
Oct-22 @ 19:15 UTC
(16 minutes ago)
VFR
Wind Visibility
10° at 4 knots 10 miles
Clouds
  • Broken at 6,000' AGL
Temperature Dewpoint
21°C / 70°F 15°C / 59°F
Humidity Altimeter Pressure
69% 30.12" Hg 1020 hPa